createdAt,value
2018-12-04T00:03:37.567Z,9.10
2018-12-04T00:08:40.600Z,9.10
2018-12-04T00:13:43.628Z,9.20
2018-12-04T00:18:46.657Z,9.00
2018-12-04T00:23:49.693Z,9.00
2018-12-04T00:28:52.716Z,9.00
2018-12-04T00:33:55.752Z,8.90
2018-12-04T00:38:58.789Z,8.90
2018-12-04T00:44:01.813Z,8.70
2018-12-04T00:49:04.850Z,8.70
2018-12-04T00:54:07.886Z,8.70
2018-12-04T00:59:10.920Z,8.50
2018-12-04T01:04:13.997Z,8.70
2018-12-04T01:09:17.011Z,8.90
2018-12-04T01:14:20.045Z,9.00
2018-12-04T01:19:23.060Z,9.00
2018-12-04T01:24:26.093Z,8.90
2018-12-04T01:29:29.121Z,8.80
2018-12-04T01:34:32.147Z,8.90
2018-12-04T01:39:35.190Z,9.10
2018-12-04T01:44:38.245Z,9.20
2018-12-04T01:49:41.283Z,9.50
2018-12-04T01:54:44.296Z,9.70
2018-12-04T01:59:47.346Z,9.90
2018-12-04T02:04:50.519Z,10.00
2018-12-04T02:09:53.749Z,10.50
2018-12-04T02:20:06.279Z,11.10
2018-12-04T02:25:09.321Z,11.30
2018-12-04T02:30:12.389Z,11.30
2018-12-04T02:35:15.412Z,11.30
2018-12-04T02:40:18.448Z,11.30
2018-12-04T02:45:21.469Z,11.20
2018-12-04T02:50:24.491Z,11.20
2018-12-04T02:55:27.537Z,11.20
2018-12-04T03:00:30.601Z,11.30
2018-12-04T03:05:33.613Z,11.30
2018-12-04T03:10:36.655Z,11.40
2018-12-04T03:15:39.706Z,11.50
2018-12-04T03:20:42.738Z,11.50
2018-12-04T03:25:45.766Z,11.50
2018-12-04T03:30:48.809Z,11.40
2018-12-04T03:35:51.933Z,11.20
2018-12-04T03:40:55.001Z,11.00
2018-12-04T03:45:58.009Z,10.90
2018-12-04T03:51:01.053Z,10.90
2018-12-04T03:56:04.092Z,10.90
2018-12-04T04:01:07.189Z,11.00
2018-12-04T04:06:10.237Z,11.10
2018-12-04T04:11:13.261Z,11.10
2018-12-04T04:16:16.272Z,11.20
2018-12-04T04:21:19.283Z,11.20
2018-12-04T04:26:22.292Z,11.20
2018-12-04T04:31:25.358Z,11.20
2018-12-04T04:36:28.376Z,11.10
2018-12-04T04:41:31.448Z,11.10
2018-12-04T04:46:34.491Z,11.10
2018-12-04T04:51:37.501Z,11.00
2018-12-04T04:56:41.048Z,11.00
2018-12-04T05:01:44.093Z,10.90
2018-12-04T05:06:47.157Z,10.80
2018-12-04T05:11:50.182Z,10.80
2018-12-04T05:16:53.251Z,10.90
2018-12-04T05:21:56.275Z,10.90
2018-12-04T05:26:59.299Z,10.70
2018-12-04T05:32:02.325Z,10.40
2018-12-04T05:37:05.361Z,10.20
2018-12-04T05:42:08.393Z,10.00
2018-12-04T05:47:11.414Z,9.80
2018-12-04T05:52:14.427Z,9.70
2018-12-04T05:57:17.481Z,9.60
2018-12-04T06:02:20.613Z,9.50
2018-12-04T06:07:23.636Z,9.40
2018-12-04T06:12:26.653Z,9.40
2018-12-04T06:17:29.676Z,9.30
2018-12-04T06:22:32.700Z,9.20
2018-12-04T06:27:35.725Z,9.10
2018-12-04T06:32:38.744Z,9.00
2018-12-04T06:37:41.792Z,9.00
2018-12-04T06:42:44.829Z,8.90
2018-12-04T06:47:47.844Z,8.80
2018-12-04T06:52:50.887Z,8.80
2018-12-04T06:57:57.176Z,8.80
2018-12-04T07:03:00.264Z,8.80
2018-12-04T07:08:03.327Z,8.80
2018-12-04T07:13:06.367Z,8.80
2018-12-04T07:18:09.388Z,8.80
2018-12-04T07:23:12.456Z,8.80
2018-12-04T07:28:15.457Z,8.80
2018-12-04T07:33:18.467Z,8.70
2018-12-04T07:38:21.513Z,8.80
2018-12-04T07:43:24.544Z,8.80
2018-12-04T07:48:27.535Z,8.80
2018-12-04T07:53:30.540Z,9.00
2018-12-04T07:58:33.538Z,8.90
2018-12-04T08:03:36.547Z,8.90
2018-12-04T08:08:39.627Z,8.90
2018-12-04T08:13:42.652Z,8.90
2018-12-04T08:18:45.656Z,8.90
2018-12-04T08:23:48.716Z,8.90
2018-12-04T08:28:51.725Z,8.80
2018-12-04T08:33:54.748Z,8.90
2018-12-04T08:38:57.775Z,9.00
2018-12-04T08:44:00.791Z,8.90
2018-12-04T08:49:03.803Z,8.60
2018-12-04T08:54:06.799Z,8.30
2018-12-04T08:59:09.825Z,8.30
2018-12-04T09:04:12.832Z,8.40
2018-12-04T09:09:15.857Z,8.80
2018-12-04T09:14:18.896Z,9.60
2018-12-04T09:19:21.962Z,14.30
2018-12-04T09:24:30.568Z,13.20
2018-12-04T09:29:30.138Z,12.70
2018-12-04T09:34:33.217Z,13.90
2018-12-04T09:39:36.229Z,12.20
2018-12-04T09:44:46.105Z,14.40
2018-12-04T09:49:53.063Z,12.00
2018-12-04T09:54:56.079Z,10.60
2018-12-04T09:59:59.131Z,9.90
2018-12-04T10:05:02.145Z,10.20
2018-12-04T10:10:06.562Z,9.90
2018-12-04T10:15:09.584Z,12.30
2018-12-04T10:20:13.216Z,13.30
2018-12-04T10:25:16.267Z,18.30
2018-12-04T10:30:19.386Z,17.30
2018-12-04T10:35:22.424Z,15.40
2018-12-04T10:40:25.449Z,16.90
2018-12-04T10:45:28.473Z,15.80
2018-12-04T10:50:31.515Z,13.70
2018-12-04T10:55:34.539Z,14.40
2018-12-04T11:00:42.972Z,14.80
2018-12-04T11:05:45.996Z,14.70
2018-12-04T11:10:49.026Z,12.10
2018-12-04T11:15:52.055Z,13.10
2018-12-04T11:20:55.074Z,17.00
2018-12-04T11:25:58.092Z,17.80
2018-12-04T11:31:01.108Z,17.40
2018-12-04T11:36:04.117Z,18.80
2018-12-04T11:41:07.142Z,18.40
2018-12-04T11:46:10.184Z,15.40
2018-12-04T11:51:13.224Z,15.40
2018-12-04T11:56:16.247Z,14.90
2018-12-04T12:01:24.718Z,14.80
2018-12-04T12:06:27.760Z,15.80
2018-12-04T12:11:30.797Z,16.40
2018-12-04T12:16:33.902Z,16.50
2018-12-04T12:21:36.917Z,16.30
2018-12-04T12:26:39.943Z,17.30
2018-12-04T12:31:42.972Z,16.70
2018-12-04T12:36:46.053Z,16.20
2018-12-04T12:41:49.125Z,16.80
2018-12-04T12:46:52.416Z,16.20
2018-12-04T12:51:55.454Z,15.90
2018-12-04T12:56:58.474Z,14.60
2018-12-04T13:02:01.511Z,14.10
2018-12-04T13:07:04.519Z,13.60
2018-12-04T13:12:08.357Z,11.40
2018-12-04T13:17:11.344Z,10.70
2018-12-04T13:22:14.371Z,10.20
2018-12-04T13:27:17.358Z,9.90
2018-12-04T13:32:20.427Z,9.90
2018-12-04T13:37:23.530Z,9.60
2018-12-04T13:42:26.744Z,9.30
2018-12-04T13:47:29.833Z,8.90
2018-12-04T13:52:32.962Z,8.60
2018-12-04T13:57:36.007Z,8.50
2018-12-04T14:02:39.002Z,8.50
2018-12-04T14:07:42.006Z,8.50
2018-12-04T14:12:45.153Z,8.50
2018-12-04T14:17:48.177Z,8.50
2018-12-04T14:22:51.204Z,8.40
2018-12-04T14:27:54.268Z,8.30
2018-12-04T14:32:57.334Z,8.10
2018-12-04T14:38:00.442Z,8.00
2018-12-04T14:43:03.620Z,7.90
2018-12-04T14:48:06.718Z,7.80
2018-12-04T14:53:09.820Z,7.80
2018-12-04T14:58:12.928Z,7.70
2018-12-04T15:03:16.035Z,7.50
2018-12-04T15:08:19.056Z,7.50
2018-12-04T15:13:22.138Z,7.50
2018-12-04T15:18:25.197Z,7.30
2018-12-04T15:23:28.334Z,7.20
2018-12-04T15:28:31.452Z,7.10
2018-12-04T15:33:34.498Z,7.00
2018-12-04T15:38:37.609Z,7.20
2018-12-04T15:43:40.687Z,7.40
2018-12-04T15:48:43.851Z,7.50
2018-12-04T15:53:47.003Z,7.50
2018-12-04T15:58:50.074Z,7.20
2018-12-04T16:03:53.233Z,6.80
2018-12-04T16:08:56.256Z,6.50
2018-12-04T16:13:59.277Z,6.30
2018-12-04T16:19:02.281Z,6.30
2018-12-04T16:24:05.293Z,6.40
2018-12-04T16:29:08.310Z,6.40
2018-12-04T16:34:11.361Z,6.50
2018-12-04T16:39:14.416Z,6.40
2018-12-04T16:44:17.447Z,6.20
2018-12-04T16:49:20.577Z,6.30
2018-12-04T16:54:23.585Z,6.20
2018-12-04T16:59:26.658Z,6.20
2018-12-04T17:04:29.923Z,6.10
2018-12-04T17:09:33.073Z,6.10
2018-12-04T17:14:36.096Z,6.10
2018-12-04T17:19:39.104Z,5.90
2018-12-04T17:24:42.107Z,6.00
2018-12-04T17:29:45.124Z,6.10
2018-12-04T17:34:48.292Z,6.30
2018-12-04T17:39:51.304Z,6.40
2018-12-04T17:44:54.334Z,6.60
2018-12-04T17:49:57.435Z,6.80
2018-12-04T17:55:00.483Z,6.80
2018-12-04T18:00:03.720Z,6.60
2018-12-04T18:05:06.744Z,6.40
2018-12-04T18:10:09.783Z,6.30
2018-12-04T18:15:12.950Z,6.10
2018-12-04T18:20:15.973Z,6.00
2018-12-04T18:25:19.006Z,5.80
2018-12-04T18:30:22.031Z,5.50
2018-12-04T18:35:25.056Z,5.30
2018-12-04T18:40:28.069Z,5.00
2018-12-04T18:45:31.748Z,4.90
2018-12-04T18:50:34.786Z,4.70
2018-12-04T18:55:37.810Z,4.40
2018-12-04T19:00:40.833Z,4.30
2018-12-04T19:05:43.844Z,4.60
2018-12-04T19:10:46.914Z,4.80
2018-12-04T19:15:50.027Z,5.00
2018-12-04T19:20:53.033Z,5.10
2018-12-04T19:25:56.049Z,5.10
2018-12-04T19:31:02.717Z,4.90
2018-12-04T19:36:06.849Z,4.70
2018-12-04T19:41:09.857Z,4.40
2018-12-04T19:46:14.022Z,4.30
2018-12-04T19:51:17.073Z,4.30
2018-12-04T19:56:20.190Z,4.10
2018-12-04T20:01:23.434Z,4.00
2018-12-04T20:06:26.518Z,3.70
2018-12-04T20:11:29.548Z,3.50
2018-12-04T20:16:32.575Z,3.40
2018-12-04T20:21:35.584Z,3.40
2018-12-04T20:26:38.652Z,3.20
2018-12-04T20:31:42.760Z,3.10
2018-12-04T20:36:46.029Z,3.20
2018-12-04T20:41:49.155Z,3.10
2018-12-04T20:46:52.414Z,2.90
2018-12-04T20:51:55.436Z,2.90
2018-12-04T20:56:58.600Z,2.90
2018-12-04T21:02:01.647Z,2.60
2018-12-04T21:07:04.882Z,2.60
2018-12-04T21:12:07.962Z,2.50
2018-12-04T21:17:11.042Z,2.40
2018-12-04T21:22:14.072Z,2.40
2018-12-04T21:27:23.588Z,2.30
2018-12-04T21:32:31.970Z,2.30
2018-12-04T21:37:40.684Z,2.20
2018-12-04T21:42:49.164Z,2.10
2018-12-04T21:47:58.469Z,2.00
2018-12-04T21:53:01.541Z,2.00
2018-12-04T21:58:04.712Z,2.00
2018-12-04T22:03:07.808Z,1.90
2018-12-04T22:08:10.849Z,1.90
2018-12-04T22:13:13.866Z,1.80
2018-12-04T22:18:16.905Z,1.90
2018-12-04T22:23:20.309Z,1.80
2018-12-04T22:28:23.493Z,1.70
2018-12-04T22:33:26.712Z,1.70
2018-12-04T22:38:29.977Z,1.80
2018-12-04T22:43:33.143Z,2.00
2018-12-04T22:48:36.168Z,2.30
2018-12-04T22:53:39.215Z,2.50
2018-12-04T22:58:42.824Z,2.70
2018-12-04T23:03:45.861Z,2.60
2018-12-04T23:08:53.695Z,2.50
2018-12-04T23:14:00.887Z,2.40
2018-12-04T23:19:04.133Z,2.10
2018-12-04T23:24:07.132Z,2.00
2018-12-04T23:29:10.258Z,1.90
2018-12-04T23:34:13.283Z,1.80
2018-12-04T23:39:16.395Z,1.70
2018-12-04T23:44:21.346Z,1.60
2018-12-04T23:49:24.387Z,1.70
2018-12-04T23:54:27.393Z,1.50
2018-12-04T23:59:30.400Z,1.40
